sensor_id;sensor_type;location;lat;lon;timestamp;P1;durP1;ratioP1;P2;durP2;ratioP2
37791;SDS011;29527;55.766;37.570;2024-01-15T00:01:45;21.35;;;10.60;;
37791;SDS011;29527;55.766;37.570;2024-01-15T00:04:10;18.40;;;9.70;;
37791;SDS011;29527;55.766;37.570;2024-01-15T00:06:36;17.08;;;9.45;;
37791;SDS011;29527;55.766;37.570;2024-01-15T00:09:02;17.98;;;9.45;;
37791;SDS011;29527;55.766;37.570;2024-01-15T00:11:27;19.27;;;10.73;;
37791;SDS011;29527;55.766;37.570;2024-01-15T00:13:53;21.00;;;10.00;;
37791;SDS011;29527;55.766;37.570;2024-01-15T00:16:18;20.98;;;10.20;;
37791;SDS011;29527;55.766;37.570;2024-01-15T00:18:43;23.13;;;10.98;;
37791;SDS011;29527;55.766;37.570;2024-01-15T00:21:09;20.55;;;10.68;;
37791;SDS011;29527;55.766;37.570;2024-01-15T00:23:35;18.15;;;9.55;;
37791;SDS011;29527;55.766;37.570;2024-01-15T00:26:00;21.33;;;11.13;;
37791;SDS011;29527;55.766;37.570;2024-01-15T00:28:26;22.30;;;10.50;;
37791;SDS011;29527;55.766;37.570;2024-01-15T00:30:52;24.48;;;10.95;;
37791;SDS011;29527;55.766;37.570;2024-01-15T00:33:17;19.67;;;10.35;;
37791;SDS011;29527;55.766;37.570;2024-01-15T00:35:43;16.00;;;8.75;;
37791;SDS011;29527;55.766;37.570;2024-01-15T00:38:08;21.73;;;10.82;;
37791;SDS011;29527;55.766;37.570;2024-01-15T00:40:34;20.55;;;10.77;;
37791;SDS011;29527;55.766;37.570;2024-01-15T00:43:00;19.48;;;10.15;;
37791;SDS011;29527;55.766;37.570;2024-01-15T00:45:27;20.58;;;11.38;;
37791;SDS011;29527;55.766;37.570;2024-01-15T00:47:52;20.48;;;10.93;;
37791;SDS011;29527;55.766;37.570;2024-01-15T00:50:18;24.35;;;11.40;;
37791;SDS011;29527;55.766;37.570;2024-01-15T00:52:43;23.00;;;10.50;;
37791;SDS011;29527;55.766;37.570;2024-01-15T00:55:09;19.88;;;11.23;;
37791;SDS011;29527;55.766;37.570;2024-01-15T00:57:34;21.42;;;10.90;;
37791;SDS011;29527;55.766;37.570;2024-01-15T01:00:00;22.27;;;11.32;;
37791;SDS011;29527;55.766;37.570;2024-01-15T01:02:26;20.10;;;11.85;;
37791;SDS011;29527;55.766;37.570;2024-01-15T01:04:51;25.35;;;11.93;;
37791;SDS011;29527;55.766;37.570;2024-01-15T01:07:17;22.15;;;11.93;;
37791;SDS011;29527;55.766;37.570;2024-01-15T01:09:42;23.23;;;11.18;;
37791;SDS011;29527;55.766;37.570;2024-01-15T01:12:09;21.08;;;11.23;;
37791;SDS011;29527;55.766;37.570;2024-01-15T01:14:34;18.67;;;9.90;;
37791;SDS011;29527;55.766;37.570;2024-01-15T01:16:59;21.13;;;11.45;;
37791;SDS011;29527;55.766;37.570;2024-01-15T01:19:25;20.05;;;11.27;;
37791;SDS011;29527;55.766;37.570;2024-01-15T01:21:51;23.13;;;11.20;;
37791;SDS011;29527;55.766;37.570;2024-01-15T01:24:16;20.65;;;10.85;;
37791;SDS011;29527;55.766;37.570;2024-01-15T01:26:42;21.15;;;11.70;;
37791;SDS011;29527;55.766;37.570;2024-01-15T01:29:07;23.05;;;11.90;;
37791;SDS011;29527;55.766;37.570;2024-01-15T01:31:33;22.08;;;11.77;;
37791;SDS011;29527;55.766;37.570;2024-01-15T01:33:58;20.90;;;11.15;;
37791;SDS011;29527;55.766;37.570;2024-01-15T01:36:24;23.30;;;11.52;;
37791;SDS011;29527;55.766;37.570;2024-01-15T01:38:49;23.02;;;11.70;;
37791;SDS011;29527;55.766;37.570;2024-01-15T01:41:15;21.60;;;12.13;;
37791;SDS011;29527;55.766;37.570;2024-01-15T01:43:41;22.40;;;12.65;;
37791;SDS011;29527;55.766;37.570;2024-01-15T01:46:07;23.83;;;11.80;;
37791;SDS011;29527;55.766;37.570;2024-01-15T01:48:33;21.65;;;12.23;;
37791;SDS011;29527;55.766;37.570;2024-01-15T01:50:59;25.20;;;11.82;;
37791;SDS011;29527;55.766;37.570;2024-01-15T01:53:27;22.65;;;12.05;;
37791;SDS011;29527;55.766;37.570;2024-01-15T01:55:54;21.58;;;10.65;;
37791;SDS011;29527;55.766;37.570;2024-01-15T01:58:22;21.88;;;11.63;;
37791;SDS011;29527;55.766;37.570;2024-01-15T02:00:48;24.25;;;12.82;;
37791;SDS011;29527;55.766;37.570;2024-01-15T02:03:14;21.40;;;12.00;;
37791;SDS011;29527;55.766;37.570;2024-01-15T02:05:40;21.23;;;11.07;;
37791;SDS011;29527;55.766;37.570;2024-01-15T02:08:09;21.52;;;11.40;;
37791;SDS011;29527;55.766;37.570;2024-01-15T02:10:35;26.90;;;13.00;;
37791;SDS011;29527;55.766;37.570;2024-01-15T02:13:00;21.15;;;12.10;;
37791;SDS011;29527;55.766;37.570;2024-01-15T02:15:26;21.83;;;12.07;;
37791;SDS011;29527;55.766;37.570;2024-01-15T02:20:28;23.52;;;12.52;;
37791;SDS011;29527;55.766;37.570;2024-01-15T02:23:00;22.10;;;11.77;;
37791;SDS011;29527;55.766;37.570;2024-01-15T02:25:32;23.23;;;12.02;;
37791;SDS011;29527;55.766;37.570;2024-01-15T02:27:58;25.80;;;12.32;;
37791;SDS011;29527;55.766;37.570;2024-01-15T02:30:23;24.10;;;12.63;;
37791;SDS011;29527;55.766;37.570;2024-01-15T02:32:50;21.17;;;11.43;;
37791;SDS011;29527;55.766;37.570;2024-01-15T02:35:16;21.60;;;12.35;;
37791;SDS011;29527;55.766;37.570;2024-01-15T02:37:43;21.45;;;12.82;;
37791;SDS011;29527;55.766;37.570;2024-01-15T02:40:08;25.33;;;12.35;;
37791;SDS011;29527;55.766;37.570;2024-01-15T02:42:34;23.50;;;12.43;;
37791;SDS011;29527;55.766;37.570;2024-01-15T02:45:00;23.33;;;12.57;;
37791;SDS011;29527;55.766;37.570;2024-01-15T02:47:25;23.60;;;12.75;;
37791;SDS011;29527;55.766;37.570;2024-01-15T02:49:51;21.05;;;12.13;;
37791;SDS011;29527;55.766;37.570;2024-01-15T02:52:16;24.58;;;12.57;;
37791;SDS011;29527;55.766;37.570;2024-01-15T02:54:42;24.45;;;12.85;;
37791;SDS011;29527;55.766;37.570;2024-01-15T02:57:07;23.38;;;12.23;;
37791;SDS011;29527;55.766;37.570;2024-01-15T02:59:33;22.75;;;12.23;;
37791;SDS011;29527;55.766;37.570;2024-01-15T03:01:59;23.33;;;12.02;;
37791;SDS011;29527;55.766;37.570;2024-01-15T03:04:24;26.25;;;13.25;;
37791;SDS011;29527;55.766;37.570;2024-01-15T03:06:50;23.02;;;12.00;;
37791;SDS011;29527;55.766;37.570;2024-01-15T03:09:15;24.17;;;12.75;;
37791;SDS011;29527;55.766;37.570;2024-01-15T03:11:40;22.35;;;12.68;;
37791;SDS011;29527;55.766;37.570;2024-01-15T03:14:06;24.73;;;13.38;;
37791;SDS011;29527;55.766;37.570;2024-01-15T03:16:31;23.13;;;13.57;;
37791;SDS011;29527;55.766;37.570;2024-01-15T03:18:57;24.88;;;13.85;;
37791;SDS011;29527;55.766;37.570;2024-01-15T03:21:23;23.75;;;12.90;;
37791;SDS011;29527;55.766;37.570;2024-01-15T03:23:48;23.45;;;13.32;;
37791;SDS011;29527;55.766;37.570;2024-01-15T03:26:14;24.73;;;12.90;;
37791;SDS011;29527;55.766;37.570;2024-01-15T03:28:39;23.48;;;12.32;;
37791;SDS011;29527;55.766;37.570;2024-01-15T03:31:05;23.48;;;13.35;;
37791;SDS011;29527;55.766;37.570;2024-01-15T03:33:30;26.15;;;13.05;;
37791;SDS011;29527;55.766;37.570;2024-01-15T03:35:56;23.73;;;12.20;;
37791;SDS011;29527;55.766;37.570;2024-01-15T03:38:22;24.05;;;13.55;;
37791;SDS011;29527;55.766;37.570;2024-01-15T03:40:48;23.13;;;13.32;;
37791;SDS011;29527;55.766;37.570;2024-01-15T03:43:14;26.15;;;13.60;;
37791;SDS011;29527;55.766;37.570;2024-01-15T03:45:40;27.23;;;13.77;;
37791;SDS011;29527;55.766;37.570;2024-01-15T03:48:05;25.38;;;13.82;;
37791;SDS011;29527;55.766;37.570;2024-01-15T03:50:31;25.60;;;13.27;;
37791;SDS011;29527;55.766;37.570;2024-01-15T03:52:56;25.25;;;13.82;;
37791;SDS011;29527;55.766;37.570;2024-01-15T03:55:22;25.45;;;13.70;;
37791;SDS011;29527;55.766;37.570;2024-01-15T03:57:47;26.63;;;13.63;;
37791;SDS011;29527;55.766;37.570;2024-01-15T04:00:14;26.63;;;14.25;;
37791;SDS011;29527;55.766;37.570;2024-01-15T04:02:42;24.65;;;13.43;;
37791;SDS011;29527;55.766;37.570;2024-01-15T04:05:07;28.88;;;14.25;;
37791;SDS011;29527;55.766;37.570;2024-01-15T04:07:33;26.48;;;14.23;;
37791;SDS011;29527;55.766;37.570;2024-01-15T04:09:58;26.25;;;14.23;;
37791;SDS011;29527;55.766;37.570;2024-01-15T04:12:24;23.63;;;14.38;;
37791;SDS011;29527;55.766;37.570;2024-01-15T04:14:50;28.30;;;14.13;;
37791;SDS011;29527;55.766;37.570;2024-01-15T04:17:15;29.48;;;15.40;;
37791;SDS011;29527;55.766;37.570;2024-01-15T04:19:43;24.52;;;13.95;;
37791;SDS011;29527;55.766;37.570;2024-01-15T04:22:09;27.27;;;14.07;;
37791;SDS011;29527;55.766;37.570;2024-01-15T04:24:34;29.23;;;14.75;;
37791;SDS011;29527;55.766;37.570;2024-01-15T04:27:00;24.67;;;14.25;;
37791;SDS011;29527;55.766;37.570;2024-01-15T04:29:26;25.70;;;14.20;;
37791;SDS011;29527;55.766;37.570;2024-01-15T04:31:51;27.38;;;13.45;;
37791;SDS011;29527;55.766;37.570;2024-01-15T04:34:18;28.27;;;14.77;;
37791;SDS011;29527;55.766;37.570;2024-01-15T04:36:43;28.27;;;14.75;;
37791;SDS011;29527;55.766;37.570;2024-01-15T04:39:08;25.92;;;13.75;;
37791;SDS011;29527;55.766;37.570;2024-01-15T04:41:34;28.23;;;14.73;;
37791;SDS011;29527;55.766;37.570;2024-01-15T04:44:00;28.67;;;15.20;;
37791;SDS011;29527;55.766;37.570;2024-01-15T04:46:26;22.83;;;13.60;;
37791;SDS011;29527;55.766;37.570;2024-01-15T04:48:52;25.60;;;14.27;;
37791;SDS011;29527;55.766;37.570;2024-01-15T04:51:17;25.58;;;14.73;;
37791;SDS011;29527;55.766;37.570;2024-01-15T04:53:43;26.33;;;14.05;;
37791;SDS011;29527;55.766;37.570;2024-01-15T04:56:09;26.45;;;14.68;;
37791;SDS011;29527;55.766;37.570;2024-01-15T04:58:34;26.10;;;14.43;;
37791;SDS011;29527;55.766;37.570;2024-01-15T05:01:00;26.27;;;14.48;;
37791;SDS011;29527;55.766;37.570;2024-01-15T05:03:25;28.30;;;13.85;;
37791;SDS011;29527;55.766;37.570;2024-01-15T05:05:51;28.95;;;15.45;;
37791;SDS011;29527;55.766;37.570;2024-01-15T05:08:16;27.67;;;14.65;;
37791;SDS011;29527;55.766;37.570;2024-01-15T05:10:42;28.67;;;14.93;;
37791;SDS011;29527;55.766;37.570;2024-01-15T05:13:07;27.80;;;15.35;;
37791;SDS011;29527;55.766;37.570;2024-01-15T05:15:33;26.73;;;15.23;;
37791;SDS011;29527;55.766;37.570;2024-01-15T05:17:59;30.52;;;15.25;;
37791;SDS011;29527;55.766;37.570;2024-01-15T05:20:24;29.27;;;15.25;;
37791;SDS011;29527;55.766;37.570;2024-01-15T05:22:49;31.73;;;16.10;;
37791;SDS011;29527;55.766;37.570;2024-01-15T05:25:15;26.42;;;14.40;;
37791;SDS011;29527;55.766;37.570;2024-01-15T05:27:40;31.52;;;14.90;;
37791;SDS011;29527;55.766;37.570;2024-01-15T05:30:06;27.08;;;15.52;;
37791;SDS011;29527;55.766;37.570;2024-01-15T05:32:32;29.98;;;16.58;;
37791;SDS011;29527;55.766;37.570;2024-01-15T05:34:57;30.17;;;16.33;;
37791;SDS011;29527;55.766;37.570;2024-01-15T05:37:23;27.52;;;14.45;;
37791;SDS011;29527;55.766;37.570;2024-01-15T05:39:48;30.33;;;15.75;;
37791;SDS011;29527;55.766;37.570;2024-01-15T05:42:15;29.17;;;15.77;;
37791;SDS011;29527;55.766;37.570;2024-01-15T05:44:40;30.67;;;15.13;;
37791;SDS011;29527;55.766;37.570;2024-01-15T05:47:06;27.85;;;15.57;;
37791;SDS011;29527;55.766;37.570;2024-01-15T05:49:31;32.33;;;16.67;;
37791;SDS011;29527;55.766;37.570;2024-01-15T05:51:56;27.42;;;15.13;;
37791;SDS011;29527;55.766;37.570;2024-01-15T05:54:22;28.30;;;16.52;;
37791;SDS011;29527;55.766;37.570;2024-01-15T05:56:47;30.25;;;15.50;;
37791;SDS011;29527;55.766;37.570;2024-01-15T05:59:13;30.90;;;16.25;;
37791;SDS011;29527;55.766;37.570;2024-01-15T06:01:38;26.58;;;15.70;;
37791;SDS011;29527;55.766;37.570;2024-01-15T06:04:04;29.15;;;16.60;;
37791;SDS011;29527;55.766;37.570;2024-01-15T06:06:29;29.00;;;16.13;;
37791;SDS011;29527;55.766;37.570;2024-01-15T06:08:55;30.52;;;15.65;;
37791;SDS011;29527;55.766;37.570;2024-01-15T06:11:20;29.77;;;15.68;;
37791;SDS011;29527;55.766;37.570;2024-01-15T06:13:46;29.38;;;16.35;;
37791;SDS011;29527;55.766;37.570;2024-01-15T06:16:13;27.60;;;15.55;;
37791;SDS011;29527;55.766;37.570;2024-01-15T06:18:40;29.70;;;15.65;;
37791;SDS011;29527;55.766;37.570;2024-01-15T06:21:05;30.20;;;16.33;;
37791;SDS011;29527;55.766;37.570;2024-01-15T06:23:31;30.05;;;15.68;;
37791;SDS011;29527;55.766;37.570;2024-01-15T06:25:56;32.03;;;17.15;;
37791;SDS011;29527;55.766;37.570;2024-01-15T06:28:22;29.48;;;16.20;;
37791;SDS011;29527;55.766;37.570;2024-01-15T06:30:47;28.45;;;15.43;;
37791;SDS011;29527;55.766;37.570;2024-01-15T06:33:13;29.60;;;16.10;;
37791;SDS011;29527;55.766;37.570;2024-01-15T06:35:38;31.52;;;16.88;;
37791;SDS011;29527;55.766;37.570;2024-01-15T06:38:04;27.90;;;15.57;;
37791;SDS011;29527;55.766;37.570;2024-01-15T06:40:29;32.85;;;17.33;;
37791;SDS011;29527;55.766;37.570;2024-01-15T06:42:55;31.40;;;16.52;;
37791;SDS011;29527;55.766;37.570;2024-01-15T06:45:21;29.90;;;16.38;;
37791;SDS011;29527;55.766;37.570;2024-01-15T06:47:46;32.30;;;15.93;;
37791;SDS011;29527;55.766;37.570;2024-01-15T06:50:12;30.60;;;16.75;;
37791;SDS011;29527;55.766;37.570;2024-01-15T06:52:37;28.63;;;16.35;;
37791;SDS011;29527;55.766;37.570;2024-01-15T06:55:03;29.55;;;15.73;;
37791;SDS011;29527;55.766;37.570;2024-01-15T06:57:29;29.73;;;16.73;;
37791;SDS011;29527;55.766;37.570;2024-01-15T06:59:55;27.10;;;15.60;;
37791;SDS011;29527;55.766;37.570;2024-01-15T07:02:20;27.60;;;15.90;;
37791;SDS011;29527;55.766;37.570;2024-01-15T07:04:46;27.98;;;16.38;;
37791;SDS011;29527;55.766;37.570;2024-01-15T07:07:12;29.88;;;16.33;;
37791;SDS011;29527;55.766;37.570;2024-01-15T07:09:37;29.73;;;15.95;;
37791;SDS011;29527;55.766;37.570;2024-01-15T07:12:03;29.38;;;15.77;;
37791;SDS011;29527;55.766;37.570;2024-01-15T07:14:28;28.77;;;16.95;;
37791;SDS011;29527;55.766;37.570;2024-01-15T07:16:54;23.85;;;13.52;;
37791;SDS011;29527;55.766;37.570;2024-01-15T07:19:19;31.05;;;17.38;;
37791;SDS011;29527;55.766;37.570;2024-01-15T07:21:45;28.65;;;16.38;;
37791;SDS011;29527;55.766;37.570;2024-01-15T07:24:10;30.02;;;16.65;;
37791;SDS011;29527;55.766;37.570;2024-01-15T07:26:36;32.67;;;17.52;;
37791;SDS011;29527;55.766;37.570;2024-01-15T07:29:01;31.02;;;17.02;;
37791;SDS011;29527;55.766;37.570;2024-01-15T07:31:28;28.58;;;16.33;;
37791;SDS011;29527;55.766;37.570;2024-01-15T07:33:53;31.67;;;16.83;;
37791;SDS011;29527;55.766;37.570;2024-01-15T07:36:19;27.60;;;14.68;;
37791;SDS011;29527;55.766;37.570;2024-01-15T07:38:44;26.83;;;16.55;;
37791;SDS011;29527;55.766;37.570;2024-01-15T07:41:10;29.08;;;15.85;;
37791;SDS011;29527;55.766;37.570;2024-01-15T07:43:35;29.80;;;16.13;;
37791;SDS011;29527;55.766;37.570;2024-01-15T07:46:01;28.02;;;16.52;;
37791;SDS011;29527;55.766;37.570;2024-01-15T07:48:27;29.90;;;17.08;;
37791;SDS011;29527;55.766;37.570;2024-01-15T07:50:53;28.50;;;16.95;;
37791;SDS011;29527;55.766;37.570;2024-01-15T07:53:19;28.63;;;16.38;;
37791;SDS011;29527;55.766;37.570;2024-01-15T07:55:44;28.88;;;16.38;;
37791;SDS011;29527;55.766;37.570;2024-01-15T07:58:11;30.67;;;17.17;;
37791;SDS011;29527;55.766;37.570;2024-01-15T08:00:37;28.80;;;16.35;;
37791;SDS011;29527;55.766;37.570;2024-01-15T08:03:02;30.70;;;17.77;;
37791;SDS011;29527;55.766;37.570;2024-01-15T08:05:28;32.30;;;17.23;;
37791;SDS011;29527;55.766;37.570;2024-01-15T08:07:53;29.45;;;17.25;;
37791;SDS011;29527;55.766;37.570;2024-01-15T08:10:19;28.00;;;16.08;;
37791;SDS011;29527;55.766;37.570;2024-01-15T08:12:44;30.52;;;17.33;;
37791;SDS011;29527;55.766;37.570;2024-01-15T08:15:10;30.63;;;16.25;;
37791;SDS011;29527;55.766;37.570;2024-01-15T08:17:35;31.02;;;17.13;;
37791;SDS011;29527;55.766;37.570;2024-01-15T08:20:01;28.70;;;16.98;;
37791;SDS011;29527;55.766;37.570;2024-01-15T08:22:27;29.17;;;16.52;;
37791;SDS011;29527;55.766;37.570;2024-01-15T08:24:53;25.88;;;16.52;;
37791;SDS011;29527;55.766;37.570;2024-01-15T08:27:20;29.20;;;16.50;;
37791;SDS011;29527;55.766;37.570;2024-01-15T08:29:46;28.85;;;16.50;;
37791;SDS011;29527;55.766;37.570;2024-01-15T08:32:11;24.48;;;15.77;;
37791;SDS011;29527;55.766;37.570;2024-01-15T08:34:39;28.90;;;16.70;;
37791;SDS011;29527;55.766;37.570;2024-01-15T08:37:04;27.17;;;16.50;;
37791;SDS011;29527;55.766;37.570;2024-01-15T08:39:30;27.25;;;16.55;;
37791;SDS011;29527;55.766;37.570;2024-01-15T08:41:55;26.00;;;15.95;;
37791;SDS011;29527;55.766;37.570;2024-01-15T08:44:21;32.53;;;18.15;;
37791;SDS011;29527;55.766;37.570;2024-01-15T08:46:47;31.40;;;17.45;;
37791;SDS011;29527;55.766;37.570;2024-01-15T08:49:12;25.90;;;16.52;;
37791;SDS011;29527;55.766;37.570;2024-01-15T08:51:38;27.98;;;17.27;;
37791;SDS011;29527;55.766;37.570;2024-01-15T08:54:04;31.40;;;17.80;;
37791;SDS011;29527;55.766;37.570;2024-01-15T08:56:29;28.40;;;16.25;;
37791;SDS011;29527;55.766;37.570;2024-01-15T08:58:55;27.30;;;16.85;;
37791;SDS011;29527;55.766;37.570;2024-01-15T09:01:21;27.02;;;16.88;;
37791;SDS011;29527;55.766;37.570;2024-01-15T09:03:46;28.17;;;15.65;;
37791;SDS011;29527;55.766;37.570;2024-01-15T09:06:13;28.05;;;17.67;;
37791;SDS011;29527;55.766;37.570;2024-01-15T09:08:39;30.77;;;17.58;;
37791;SDS011;29527;55.766;37.570;2024-01-15T09:11:04;29.48;;;15.70;;
37791;SDS011;29527;55.766;37.570;2024-01-15T09:13:30;26.35;;;15.35;;
37791;SDS011;29527;55.766;37.570;2024-01-15T09:15:56;29.15;;;15.90;;
37791;SDS011;29527;55.766;37.570;2024-01-15T09:18:21;26.00;;;15.80;;
37791;SDS011;29527;55.766;37.570;2024-01-15T09:20:47;28.63;;;15.85;;
37791;SDS011;29527;55.766;37.570;2024-01-15T09:23:12;28.25;;;16.38;;
37791;SDS011;29527;55.766;37.570;2024-01-15T09:25:38;25.58;;;15.48;;
37791;SDS011;29527;55.766;37.570;2024-01-15T09:28:04;27.90;;;16.38;;
37791;SDS011;29527;55.766;37.570;2024-01-15T09:30:29;29.33;;;16.92;;
37791;SDS011;29527;55.766;37.570;2024-01-15T09:32:55;30.55;;;17.30;;
37791;SDS011;29527;55.766;37.570;2024-01-15T09:35:20;27.23;;;15.82;;
37791;SDS011;29527;55.766;37.570;2024-01-15T09:37:46;23.55;;;15.35;;
37791;SDS011;29527;55.766;37.570;2024-01-15T09:40:12;24.88;;;15.82;;
37791;SDS011;29527;55.766;37.570;2024-01-15T09:42:43;26.52;;;15.90;;
37791;SDS011;29527;55.766;37.570;2024-01-15T09:45:09;28.33;;;16.80;;
37791;SDS011;29527;55.766;37.570;2024-01-15T09:47:35;28.45;;;16.50;;
37791;SDS011;29527;55.766;37.570;2024-01-15T09:50:02;27.25;;;16.13;;
37791;SDS011;29527;55.766;37.570;2024-01-15T09:52:30;29.52;;;16.80;;
37791;SDS011;29527;55.766;37.570;2024-01-15T09:54:56;26.85;;;15.75;;
37791;SDS011;29527;55.766;37.570;2024-01-15T09:57:26;26.38;;;14.95;;
37791;SDS011;29527;55.766;37.570;2024-01-15T09:59:51;26.23;;;15.95;;
37791;SDS011;29527;55.766;37.570;2024-01-15T10:02:18;24.98;;;16.10;;
37791;SDS011;29527;55.766;37.570;2024-01-15T10:04:44;30.02;;;16.20;;
37791;SDS011;29527;55.766;37.570;2024-01-15T10:07:11;28.13;;;15.88;;
37791;SDS011;29527;55.766;37.570;2024-01-15T10:09:41;27.20;;;15.43;;
37791;SDS011;29527;55.766;37.570;2024-01-15T10:12:07;24.08;;;14.65;;
37791;SDS011;29527;55.766;37.570;2024-01-15T10:14:34;26.45;;;15.95;;
37791;SDS011;29527;55.766;37.570;2024-01-15T10:17:00;26.85;;;15.60;;
37791;SDS011;29527;55.766;37.570;2024-01-15T10:19:25;24.25;;;14.60;;
37791;SDS011;29527;55.766;37.570;2024-01-15T10:21:51;25.67;;;14.93;;
37791;SDS011;29527;55.766;37.570;2024-01-15T10:24:16;24.75;;;15.05;;
37791;SDS011;29527;55.766;37.570;2024-01-15T10:26:42;24.50;;;14.55;;
37791;SDS011;29527;55.766;37.570;2024-01-15T10:29:08;24.27;;;14.80;;
37791;SDS011;29527;55.766;37.570;2024-01-15T10:31:33;23.88;;;14.32;;
37791;SDS011;29527;55.766;37.570;2024-01-15T10:34:11;22.58;;;13.63;;
37791;SDS011;29527;55.766;37.570;2024-01-15T10:36:40;24.40;;;14.40;;
37791;SDS011;29527;55.766;37.570;2024-01-15T10:39:06;23.67;;;14.50;;
37791;SDS011;29527;55.766;37.570;2024-01-15T10:41:33;24.23;;;15.00;;
37791;SDS011;29527;55.766;37.570;2024-01-15T10:43:59;25.73;;;15.55;;
37791;SDS011;29527;55.766;37.570;2024-01-15T10:46:25;23.67;;;15.32;;
37791;SDS011;29527;55.766;37.570;2024-01-15T10:48:51;23.92;;;14.52;;
37791;SDS011;29527;55.766;37.570;2024-01-15T10:51:16;26.95;;;14.60;;
37791;SDS011;29527;55.766;37.570;2024-01-15T10:53:44;27.98;;;15.88;;
37791;SDS011;29527;55.766;37.570;2024-01-15T10:56:11;25.45;;;14.82;;
37791;SDS011;29527;55.766;37.570;2024-01-15T10:58:39;25.27;;;14.55;;
37791;SDS011;29527;55.766;37.570;2024-01-15T11:01:05;24.17;;;14.98;;
37791;SDS011;29527;55.766;37.570;2024-01-15T11:03:31;24.63;;;14.57;;
37791;SDS011;29527;55.766;37.570;2024-01-15T11:05:57;27.00;;;15.93;;
37791;SDS011;29527;55.766;37.570;2024-01-15T11:08:25;25.58;;;15.88;;
37791;SDS011;29527;55.766;37.570;2024-01-15T11:10:51;28.77;;;14.85;;
37791;SDS011;29527;55.766;37.570;2024-01-15T11:13:22;25.50;;;16.38;;
37791;SDS011;29527;55.766;37.570;2024-01-15T11:16:06;25.83;;;15.70;;
37791;SDS011;29527;55.766;37.570;2024-01-15T11:18:37;26.25;;;15.60;;
37791;SDS011;29527;55.766;37.570;2024-01-15T11:23:43;25.90;;;16.05;;
37791;SDS011;29527;55.766;37.570;2024-01-15T11:34:19;26.70;;;16.33;;
37791;SDS011;29527;55.766;37.570;2024-01-15T11:41:54;26.45;;;14.95;;
37791;SDS011;29527;55.766;37.570;2024-01-15T11:44:20;27.55;;;15.68;;
37791;SDS011;29527;55.766;37.570;2024-01-15T11:46:53;25.05;;;15.25;;
37791;SDS011;29527;55.766;37.570;2024-01-15T11:51:55;25.80;;;16.42;;
37791;SDS011;29527;55.766;37.570;2024-01-15T11:54:22;30.20;;;16.55;;
37791;SDS011;29527;55.766;37.570;2024-01-15T11:56:49;30.00;;;15.38;;
37791;SDS011;29527;55.766;37.570;2024-01-15T11:59:15;27.83;;;15.82;;
37791;SDS011;29527;55.766;37.570;2024-01-15T12:01:40;31.75;;;15.63;;
37791;SDS011;29527;55.766;37.570;2024-01-15T12:04:06;26.52;;;15.02;;
37791;SDS011;29527;55.766;37.570;2024-01-15T12:06:31;24.88;;;13.77;;
37791;SDS011;29527;55.766;37.570;2024-01-15T12:09:09;25.25;;;15.05;;
37791;SDS011;29527;55.766;37.570;2024-01-15T12:11:35;25.02;;;16.10;;
37791;SDS011;29527;55.766;37.570;2024-01-15T12:14:04;23.52;;;14.77;;
37791;SDS011;29527;55.766;37.570;2024-01-15T12:16:29;27.38;;;15.25;;
37791;SDS011;29527;55.766;37.570;2024-01-15T12:18:55;22.58;;;14.45;;
37791;SDS011;29527;55.766;37.570;2024-01-15T12:21:20;26.85;;;14.75;;
37791;SDS011;29527;55.766;37.570;2024-01-15T12:23:46;23.90;;;16.05;;
37791;SDS011;29527;55.766;37.570;2024-01-15T12:26:13;26.00;;;15.43;;
37791;SDS011;29527;55.766;37.570;2024-01-15T12:28:39;25.65;;;15.68;;
37791;SDS011;29527;55.766;37.570;2024-01-15T12:31:05;24.67;;;15.23;;
37791;SDS011;29527;55.766;37.570;2024-01-15T12:33:30;24.52;;;15.65;;
37791;SDS011;29527;55.766;37.570;2024-01-15T12:35:56;26.25;;;15.25;;
37791;SDS011;29527;55.766;37.570;2024-01-15T12:38:21;25.45;;;15.23;;
37791;SDS011;29527;55.766;37.570;2024-01-15T12:40:47;28.08;;;16.17;;
37791;SDS011;29527;55.766;37.570;2024-01-15T12:43:15;25.15;;;15.50;;
37791;SDS011;29527;55.766;37.570;2024-01-15T12:45:40;23.63;;;15.15;;
37791;SDS011;29527;55.766;37.570;2024-01-15T12:48:06;25.60;;;15.80;;
37791;SDS011;29527;55.766;37.570;2024-01-15T12:50:33;28.02;;;14.80;;
37791;SDS011;29527;55.766;37.570;2024-01-15T12:52:58;25.30;;;14.77;;
37791;SDS011;29527;55.766;37.570;2024-01-15T12:55:24;28.48;;;16.15;;
37791;SDS011;29527;55.766;37.570;2024-01-15T12:57:50;25.73;;;15.55;;
37791;SDS011;29527;55.766;37.570;2024-01-15T13:00:19;24.52;;;15.23;;
37791;SDS011;29527;55.766;37.570;2024-01-15T13:02:45;23.75;;;14.57;;
37791;SDS011;29527;55.766;37.570;2024-01-15T13:05:11;30.13;;;16.88;;
37791;SDS011;29527;55.766;37.570;2024-01-15T13:07:37;27.38;;;15.80;;
37791;SDS011;29527;55.766;37.570;2024-01-15T13:10:03;24.95;;;15.77;;
37791;SDS011;29527;55.766;37.570;2024-01-15T13:12:30;27.27;;;15.20;;
37791;SDS011;29527;55.766;37.570;2024-01-15T13:14:55;24.98;;;15.15;;
37791;SDS011;29527;55.766;37.570;2024-01-15T13:17:21;26.58;;;15.20;;
37791;SDS011;29527;55.766;37.570;2024-01-15T13:19:47;25.27;;;15.52;;
37791;SDS011;29527;55.766;37.570;2024-01-15T13:22:14;27.17;;;15.98;;
37791;SDS011;29527;55.766;37.570;2024-01-15T13:24:39;28.08;;;15.95;;
37791;SDS011;29527;55.766;37.570;2024-01-15T13:27:05;28.70;;;16.17;;
37791;SDS011;29527;55.766;37.570;2024-01-15T13:29:32;26.50;;;16.80;;
37791;SDS011;29527;55.766;37.570;2024-01-15T13:31:58;29.20;;;16.83;;
37791;SDS011;29527;55.766;37.570;2024-01-15T13:34:24;26.05;;;16.15;;
37791;SDS011;29527;55.766;37.570;2024-01-15T13:36:49;29.13;;;16.48;;
37791;SDS011;29527;55.766;37.570;2024-01-15T13:39:15;25.02;;;15.57;;
37791;SDS011;29527;55.766;37.570;2024-01-15T13:41:45;30.88;;;17.02;;
37791;SDS011;29527;55.766;37.570;2024-01-15T13:44:14;26.65;;;16.13;;
37791;SDS011;29527;55.766;37.570;2024-01-15T13:46:40;28.25;;;17.08;;
37791;SDS011;29527;55.766;37.570;2024-01-15T13:49:06;29.48;;;16.95;;
37791;SDS011;29527;55.766;37.570;2024-01-15T13:51:34;28.45;;;16.65;;
37791;SDS011;29527;55.766;37.570;2024-01-15T13:54:00;29.08;;;17.23;;
37791;SDS011;29527;55.766;37.570;2024-01-15T13:56:25;27.58;;;17.08;;
37791;SDS011;29527;55.766;37.570;2024-01-15T13:58:55;31.35;;;18.23;;
37791;SDS011;29527;55.766;37.570;2024-01-15T14:01:21;27.92;;;16.73;;
37791;SDS011;29527;55.766;37.570;2024-01-15T14:03:46;26.70;;;15.27;;
37791;SDS011;29527;55.766;37.570;2024-01-15T14:06:12;31.60;;;18.08;;
37791;SDS011;29527;55.766;37.570;2024-01-15T14:08:37;27.92;;;17.27;;
37791;SDS011;29527;55.766;37.570;2024-01-15T14:11:03;30.98;;;18.52;;
37791;SDS011;29527;55.766;37.570;2024-01-15T14:13:31;30.02;;;17.52;;
37791;SDS011;29527;55.766;37.570;2024-01-15T14:15:57;32.25;;;18.13;;
37791;SDS011;29527;55.766;37.570;2024-01-15T14:18:23;29.90;;;17.27;;
37791;SDS011;29527;55.766;37.570;2024-01-15T14:20:48;32.55;;;17.45;;
37791;SDS011;29527;55.766;37.570;2024-01-15T14:23:13;33.72;;;18.13;;